Time;durP1;ratioP1;P1;durP2;ratioP2;P2;SDS_P1;SDS_P2;PMS_P1;PMS_P2;Temp;Humidity;BMP_temperature;BMP_pressure;BME280_temperature;BME280_humidity;BME280_pressure;Samples;Min_cycle;Max_cycle;Signal;HPM_P1;HPM_P2
2022/01/24 00:02:06;;;;;;;;;;;5.80;99.90;;;3.09;100.00;102292.22;5049910;28;19928;-78
2022/01/24 00:04:33;;;;;;;;;;;4.70;99.90;;;3.02;100.00;102285.00;5066748;28;19928;-77
2022/01/24 00:07:00;;;;;;;;;;;3.60;99.90;;;2.94;100.00;102284.69;5068850;28;19928;-78
2022/01/24 00:09:27;;;;;;;;;;;4.00;99.90;;;2.84;100.00;102285.19;5052742;28;19925;-78
2022/01/24 00:27:48;;;;;;;;;;;3.40;99.90;;;2.71;100.00;102278.59;5075565;28;20335;-77
2022/01/24 00:30:15;;;;;;;;;;;3.30;99.90;;;2.73;100.00;102281.28;5076326;28;19932;-78
2022/01/24 00:32:42;;;;;;;;;;;3.30;99.90;;;2.68;100.00;102281.09;5074715;28;19929;-78
2022/01/24 00:35:10;;;;;;;;;;;3.30;99.90;;;2.68;100.00;102281.09;5074394;28;20328;-76
2022/01/24 00:37:38;;;;;;;;;;;3.30;99.90;;;2.73;100.00;102282.16;5075184;28;19929;-76
2022/01/24 00:40:06;;;;;;;;;;;3.20;99.90;;;2.67;100.00;102269.81;5074414;28;19925;-78
2022/01/24 00:42:51;;;;;;;;;;;3.30;99.90;;;2.65;100.00;102271.47;5072639;28;19928;-79
2022/01/24 00:45:30;;;;;;;;;;;4.90;99.90;;;2.71;100.00;102280.34;5042305;28;19928;-78
2022/01/24 00:53:36;;;;;;;;;;;3.20;99.90;;;2.58;100.00;102281.56;5070549;28;19978;-80
2022/01/24 00:56:04;;;;;;;;;;;3.00;99.90;;;2.59;100.00;102280.75;5053105;28;19936;-78
2022/01/24 00:58:30;;;;;;;;;;;3.20;99.90;;;2.53;100.00;102282.25;5067177;28;20699;-77
2022/01/24 01:00:57;;;;;;;;;;;3.20;99.90;;;2.54;100.00;102272.75;5067901;28;20281;-77
2022/01/24 01:03:25;;;;;;;;;;;3.10;99.90;;;2.51;100.00;102275.25;5083135;28;19932;-78
2022/01/24 01:19:08;;;;;;;;;;;3.00;99.90;;;2.43;100.00;102290.53;5067935;28;19928;-77
2022/01/24 01:21:35;;;;;;;;;;;3.80;99.90;;;2.41;100.00;102281.75;5067973;28;20329;-78
2022/01/24 01:24:02;;;;;;;;;;;3.00;99.90;;;2.39;100.00;102281.72;5065481;28;19924;-77
2022/01/24 01:26:35;;;;;;;;;;;3.00;99.90;;;2.37;100.00;102275.56;5066327;28;19928;-77
2022/01/24 01:29:49;;;;;;;;;;;2.90;99.90;;;2.32;100.00;102281.41;5050075;28;19928;-77
2022/01/24 01:32:25;;;;;;;;;;;3.00;99.90;;;2.35;100.00;102276.31;5063113;28;19928;-77
2022/01/24 01:35:09;;;;;;;;;;;3.00;99.90;;;2.32;100.00;102278.81;5065269;28;19928;-77
2022/01/24 01:56:37;;;;;;;;;;;2.80;99.90;;;2.01;100.00;102274.94;5048691;28;19925;-79
2022/01/24 01:59:04;;;;;;;;;;;2.80;99.90;;;1.98;100.00;102278.28;5062935;28;20464;-78
2022/01/24 02:01:31;;;;;;;;;;;2.70;99.90;;;1.98;100.00;102273.97;5062447;28;20082;-79
2022/01/24 02:04:02;;;;;;;;;;;3.90;99.90;;;1.94;100.00;102272.06;5062859;28;19928;-77
2022/01/24 02:06:30;;;;;;;;;;;2.70;99.90;;;1.92;100.00;102267.66;5051404;28;20373;-78
2022/01/24 02:09:04;;;;;;;;;;;2.60;99.90;;;1.88;100.00;102268.34;5080790;28;20301;-78
2022/01/24 02:11:31;;;;;;;;;;;2.70;99.90;;;1.82;100.00;102266.38;5079525;28;19929;-78
2022/01/24 02:14:03;;;;;;;;;;;2.40;99.90;;;1.80;100.00;102268.88;5078256;28;19936;-77
2022/01/24 02:16:54;;;;;;;;;;;2.60;99.90;;;1.73;100.00;102271.16;5062280;28;19925;-78
2022/01/24 02:24:37;;;;;;;;;;;2.40;99.90;;;1.58;100.00;102271.38;5059921;28;19928;-78
2022/01/24 02:27:05;;;;;;;;;;;2.40;99.90;;;1.56;100.00;102263.53;5078749;28;20286;-78
2022/01/24 02:32:18;;;;;;;;;;;2.20;99.90;;;1.52;100.00;102259.03;5073749;28;19929;-78
2022/01/24 02:34:48;;;;;;;;;;;2.20;99.90;;;1.52;100.00;102261.63;5064443;28;19928;-79
2022/01/24 02:37:18;;;;;;;;;;;2.20;99.90;;;1.43;100.00;102256.91;5066214;28;20301;-77
2022/01/24 02:53:17;;;;;;;;;;;1.90;99.90;;;1.29;100.00;102258.88;5082604;28;19928;-78
2022/01/24 02:55:44;;;;;;;;;;;3.10;99.90;;;1.32;100.00;102268.53;5083176;28;19929;-78
2022/01/24 02:58:11;;;;;;;;;;;2.70;99.90;;;1.31;100.00;102256.38;5070068;28;19928;-78
2022/01/24 03:00:39;;;;;;;;;;;1.90;99.90;;;1.34;100.00;102260.00;5070142;28;19924;-78
2022/01/24 03:03:06;;;;;;;;;;;2.00;99.90;;;1.38;100.00;102264.50;5069464;28;19960;-78
2022/01/24 03:05:33;;;;;;;;;;;1.90;99.90;;;1.38;100.00;102261.00;5052789;28;19994;-78
2022/01/24 03:08:00;;;;;;;;;;;2.00;99.90;;;1.40;100.00;102257.66;5069617;28;19942;-78
2022/01/24 03:10:35;;;;;;;;;;;2.10;99.90;;;1.40;100.00;102249.88;5067563;28;20405;-77
2022/01/24 03:15:47;;;;;;;;;;;1.80;99.90;;;1.46;100.00;102250.97;5070564;28;19935;-76
2022/01/24 03:18:14;;;;;;;;;;;2.00;99.90;;;1.42;100.00;102248.25;5069332;28;20301;-76
2022/01/24 03:20:43;;;;;;;;;;;2.10;99.90;;;1.45;100.00;102249.19;5068635;28;19935;-77
2022/01/24 03:23:15;;;;;;;;;;;2.90;99.90;;;1.44;100.00;102243.13;5084997;28;20023;-78
2022/01/24 03:25:42;;;;;;;;;;;2.00;99.90;;;1.48;100.00;102238.94;5068572;28;19928;-77
2022/01/24 03:28:10;;;;;;;;;;;3.10;99.90;;;1.51;100.00;102241.69;5068978;28;20275;-77
2022/01/24 03:30:38;;;;;;;;;;;1.30;99.90;;;1.49;100.00;102244.22;5068665;28;20046;-78
2022/01/24 03:33:07;;;;;;;;;;;4.50;99.90;;;1.46;100.00;102244.06;5067902;28;20324;-76
2022/01/24 03:35:35;;;;;;;;;;;1.00;99.90;;;1.47;100.00;102248.44;5067704;28;19928;-78
2022/01/24 03:38:02;;;;;;;;;;;2.00;99.90;;;1.47;100.00;102247.53;5068692;28;19924;-77
2022/01/24 03:40:29;;;;;;;;;;;3.60;99.90;;;1.41;100.00;102241.28;5052280;28;19932;-77
2022/01/24 03:42:56;;;;;;;;;;;2.20;99.90;;;1.42;100.00;102243.06;5068206;28;19951;-78
2022/01/24 03:45:47;;;;;;;;;;;2.10;99.90;;;1.41;100.00;102243.00;5067825;28;19931;-78
2022/01/24 03:48:26;;;;;;;;;;;2.10;99.90;;;1.37;100.00;102238.47;5069031;28;20005;-76
2022/01/24 03:50:54;;;;;;;;;;;2.00;99.90;;;1.33;100.00;102241.75;5070088;28;20614;-76
2022/01/24 03:53:21;;;;;;;;;;;2.10;99.90;;;1.35;100.00;102238.44;5067036;28;19943;-77
2022/01/24 03:55:48;;;;;;;;;;;3.00;99.90;;;1.31;100.00;102235.63;5068256;28;20317;-77
2022/01/24 03:58:16;;;;;;;;;;;2.10;99.90;;;1.25;100.00;102233.63;5068206;28;19925;-76
2022/01/24 04:00:43;;;;;;;;;;;1.90;99.90;;;1.24;100.00;102235.34;5084281;28;19940;-78
2022/01/24 04:03:10;;;;;;;;;;;2.00;99.90;;;1.26;100.00;102233.72;5066502;28;20019;-76
2022/01/24 04:05:37;;;;;;;;;;;1.90;99.90;;;1.20;100.00;102235.16;5067370;28;19928;-77
2022/01/24 04:08:07;;;;;;;;;;;2.80;99.90;;;1.12;100.00;102237.41;5052744;28;19933;-77
2022/01/24 04:10:41;;;;;;;;;;;1.90;99.90;;;1.12;100.00;102233.09;5068159;28;20331;-78
2022/01/24 04:13:23;;;;;;;;;;;1.90;99.90;;;1.12;100.00;102232.22;5067488;28;19951;-76
2022/01/24 04:18:57;;;;;;;;;;;4.10;99.90;;;1.17;100.00;102235.00;5067304;28;19936;-75
2022/01/24 04:21:30;;;;;;;;;;;1.80;99.90;;;1.16;100.00;102239.31;5067302;28;19932;-74
2022/01/24 04:24:08;;;;;;;;;;;3.20;99.90;;;1.16;100.00;102231.53;5067077;28;20448;-75
2022/01/24 04:26:35;;;;;;;;;;;1.90;99.90;;;1.17;100.00;102230.72;5067693;28;19935;-75
2022/01/24 04:29:03;;;;;;;;;;;1.90;99.90;;;1.21;100.00;102232.59;5067284;28;20277;-75
2022/01/24 04:31:31;;;;;;;;;;;2.30;99.90;;;1.13;100.00;102229.66;5067560;28;20297;-76
2022/01/24 04:33:58;;;;;;;;;;;2.10;99.90;;;1.17;100.00;102228.13;5049281;28;19994;-75
2022/01/24 04:36:27;;;;;;;;;;;4.00;99.90;;;1.15;100.00;102228.84;5067690;28;19929;-76
2022/01/24 04:38:54;;;;;;;;;;;1.90;99.90;;;1.12;100.00;102221.84;5066243;28;19928;-77
2022/01/24 04:41:32;;;;;;;;;;;1.80;99.90;;;1.12;100.00;102221.84;5072324;28;19954;-79
2022/01/24 04:55:08;;;;;;;;;;;1.80;99.90;;;1.03;100.00;102217.13;5083042;28;20001;-78
2022/01/24 04:57:35;;;;;;;;;;;1.80;99.90;;;1.04;100.00;102220.59;5064145;28;19925;-78
2022/01/24 05:00:05;;;;;;;;;;;1.50;99.90;;;1.06;100.00;102222.44;5065305;28;19940;-79
2022/01/24 05:02:38;;;;;;;;;;;1.70;99.90;;;0.95;100.00;102221.06;5078152;28;19925;-77
2022/01/24 05:05:09;;;;;;;;;;;1.80;99.90;;;0.95;100.00;102227.16;5083024;28;19924;-78
2022/01/24 05:07:39;;;;;;;;;;;1.70;99.90;;;0.93;100.00;102226.16;5082579;28;19938;-79
2022/01/24 05:10:33;;;;;;;;;;;3.00;99.90;;;0.88;100.00;102217.31;5068282;28;19932;-78
2022/01/24 05:23:56;;;;;;;;;;;1.50;99.90;;;0.72;100.00;102233.88;5071008;28;19935;-77
2022/01/24 05:26:22;;;;;;;;;;;1.50;99.90;;;0.67;100.00;102231.06;5071714;28;19936;-78
2022/01/24 05:28:49;;;;;;;;;;;1.50;99.90;;;0.64;100.00;102230.03;5071785;28;19931;-78
2022/01/24 05:31:17;;;;;;;;;;;1.30;99.90;;;0.68;100.00;102232.84;5085363;28;19925;-77
2022/01/24 05:33:43;;;;;;;;;;;1.30;99.90;;;0.62;100.00;102232.53;5079746;28;19929;-77
2022/01/24 05:36:10;;;;;;;;;;;1.40;99.90;;;0.45;100.00;102234.34;5040197;28;19998;-77
2022/01/24 05:38:39;;;;;;;;;;;1.50;99.90;;;0.33;100.00;102228.56;5049875;28;19935;-77
2022/01/24 05:41:06;;;;;;;;;;;1.30;99.90;;;0.28;100.00;102239.59;5066537;28;20389;-77
2022/01/24 05:43:35;;;;;;;;;;;1.20;99.90;;;0.28;100.00;102242.19;5049027;28;19936;-76
2022/01/24 05:46:02;;;;;;;;;;;1.50;99.90;;;0.34;100.00;102235.50;5082520;28;20444;-76
2022/01/24 05:48:29;;;;;;;;;;;1.10;99.90;;;0.33;100.00;102247.59;5065782;28;19925;-79
2022/01/24 05:50:56;;;;;;;;;;;0.90;99.90;;;0.31;100.00;102244.00;5048660;28;20031;-77
2022/01/24 05:53:23;;;;;;;;;;;1.00;99.90;;;0.24;100.00;102234.19;5065345;28;19963;-77
2022/01/24 05:55:50;;;;;;;;;;;1.00;99.90;;;0.11;100.00;102232.72;5068207;28;19931;-79
2022/01/24 05:58:17;;;;;;;;;;;1.00;99.90;;;-0.04;100.00;102228.56;5069423;28;20545;-79
2022/01/24 06:00:44;;;;;;;;;;;1.00;99.90;;;-0.08;100.00;102230.91;5069254;28;19954;-78
2022/01/24 06:03:11;;;;;;;;;;;0.90;99.90;;;-0.05;100.00;102231.94;5051496;28;20425;-77
2022/01/24 06:05:39;;;;;;;;;;;0.90;99.90;;;-0.10;100.00;102230.81;5055072;28;19950;-79
2022/01/24 06:08:05;;;;;;;;;;;0.60;99.90;;;-0.23;100.00;102231.03;5056855;28;19943;-79
2022/01/24 06:10:32;;;;;;;;;;;0.80;99.90;;;-0.21;100.00;102235.47;5058955;28;20014;-79
2022/01/24 06:12:59;;;;;;;;;;;0.60;99.90;;;-0.29;100.00;102234.19;5076682;28;19928;-79
2022/01/24 06:15:26;;;;;;;;;;;2.80;99.90;;;-0.28;100.00;102235.97;5060176;28;19932;-79
2022/01/24 06:17:53;;;;;;;;;;;0.70;99.90;;;-0.35;100.00;102242.53;5060043;28;19931;-79
2022/01/24 06:20:20;;;;;;;;;;;0.60;99.90;;;-0.48;100.00;102238.41;5093065;28;20498;-79
2022/01/24 06:22:47;;;;;;;;;;;2.20;99.90;;;-0.49;100.00;102243.53;5076985;28;19951;-78
2022/01/24 06:25:20;;;;;;;;;;;0.70;99.90;;;-0.53;100.00;102239.00;5076182;28;19928;-79
2022/01/24 06:27:47;;;;;;;;;;;0.20;99.90;;;-0.59;100.00;102243.03;5060513;28;19928;-79
2022/01/24 06:30:14;;;;;;;;;;;0.60;99.90;;;-0.58;100.00;102247.38;5076294;28;19928;-79
2022/01/24 06:32:41;;;;;;;;;;;2.70;99.90;;;-0.62;100.00;102244.59;5076264;28;19932;-79
2022/01/24 06:35:09;;;;;;;;;;;0.30;99.90;;;-0.67;100.00;102257.28;5060484;28;19932;-79
2022/01/24 06:37:37;;;;;;;;;;;0.30;99.90;;;-0.69;100.00;102253.72;5060274;28;19935;-78
2022/01/24 06:40:09;;;;;;;;;;;0.80;99.90;;;-0.67;100.00;102248.59;5076137;28;19928;-79
2022/01/24 06:42:38;;;;;;;;;;;0.90;99.90;;;-0.79;100.00;102260.06;5058663;28;19928;-79
2022/01/24 06:45:06;;;;;;;;;;;0.40;99.90;;;-0.76;100.00;102260.25;5059065;28;20027;-79
2022/01/24 06:47:33;;;;;;;;;;;0.10;99.90;;;-0.74;100.00;102261.22;5075640;28;19924;-79
2022/01/24 06:50:00;;;;;;;;;;;0.40;99.90;;;-0.72;100.00;102261.28;5075916;28;19928;-79
2022/01/24 06:52:46;;;;;;;;;;;0.40;99.90;;;-0.80;100.00;102276.38;5063559;28;19921;-79
2022/01/24 06:55:12;;;;;;;;;;;0.10;99.90;;;-0.77;100.00;102278.25;5076274;28;20603;-79
2022/01/24 06:57:39;;;;;;;;;;;0.20;99.90;;;-0.76;100.00;102280.94;5075776;28;19924;-79
2022/01/24 07:00:07;;;;;;;;;;;0.10;99.90;;;-0.76;100.00;102264.53;5075877;28;20046;-79
2022/01/24 07:02:34;;;;;;;;;;;0.20;99.90;;;-0.67;100.00;102282.22;5058890;28;20500;-79
2022/01/24 07:05:01;;;;;;;;;;;0.10;99.90;;;-0.66;100.00;102284.00;5059280;28;20011;-79
2022/01/24 07:07:30;;;;;;;;;;;1.40;99.90;;;-0.70;100.00;102285.56;5059187;28;19958;-79
2022/01/24 07:09:57;;;;;;;;;;;0.10;99.90;;;-0.67;100.00;102290.88;5075644;28;19929;-78
2022/01/24 07:12:46;;;;;;;;;;;2.30;99.90;;;-0.73;100.00;102281.09;5061871;28;19928;-79
2022/01/24 07:15:16;;;;;;;;;;;0.60;99.90;;;-0.76;100.00;102292.97;5059821;28;19929;-79
2022/01/24 07:18:14;;;;;;;;;;;2.20;99.90;;;-0.74;100.00;102293.94;5093708;28;20312;-79
2022/01/24 07:20:41;;;;;;;;;;;0.20;99.90;;;-0.73;100.00;102293.13;5062969;28;20034;-79
2022/01/24 07:23:08;;;;;;;;;;;1.90;99.90;;;-0.78;100.00;102297.16;5074784;28;20032;-79
2022/01/24 07:25:35;;;;;;;;;;;2.00;99.90;;;-0.75;100.00;102298.22;5058429;28;20019;-79
2022/01/24 07:28:02;;;;;;;;;;;0.10;99.90;;;-0.74;100.00;102304.28;5074576;28;20518;-79
2022/01/24 07:30:29;;;;;;;;;;;0.00;99.90;;;-0.75;100.00;102295.63;5055870;28;19999;-80
2022/01/24 07:32:56;;;;;;;;;;;0.30;99.90;;;-0.83;100.00;102288.28;5070617;28;19936;-79
2022/01/24 07:35:23;;;;;;;;;;;0.20;99.90;;;-0.75;100.00;102298.22;5070166;28;19928;-79
2022/01/24 07:37:50;;;;;;;;;;;-0.10;99.90;;;-0.65;100.00;102299.59;5071110;28;19932;-79
2022/01/24 07:40:17;;;;;;;;;;;2.40;99.90;;;-0.74;100.00;102302.59;5053761;28;20684;-79
2022/01/24 07:42:56;;;;;;;;;;;0.00;99.90;;;-0.67;100.00;102310.66;5053395;28;20436;-80
2022/01/24 07:45:25;;;;;;;;;;;2.30;99.90;;;-0.63;100.00;102312.59;5070234;28;19929;-78
2022/01/24 07:47:57;;;;;;;;;;;0.10;99.90;;;-0.81;100.00;102317.69;5070672;28;20427;-78
2022/01/24 07:50:26;;;;;;;;;;;0.30;99.90;;;-0.84;100.00;102308.06;5052805;28;20483;-79
2022/01/24 07:52:55;;;;;;;;;;;1.20;99.90;;;-0.77;100.00;102312.78;5070151;28;19935;-78
2022/01/24 07:55:22;;;;;;;;;;;0.90;99.90;;;-0.69;100.00;102320.03;5070656;28;20031;-78
2022/01/24 07:57:49;;;;;;;;;;;0.00;99.90;;;-0.69;100.00;102313.19;5066204;28;19924;-78
2022/01/24 08:00:16;;;;;;;;;;;0.10;99.90;;;-0.63;100.00;102321.25;5067179;28;19928;-78
2022/01/24 08:02:44;;;;;;;;;;;3.00;99.90;;;-0.53;100.00;102326.94;5082869;28;19928;-79
2022/01/24 08:05:11;;;;;;;;;;;2.50;99.90;;;-0.55;100.00;102320.75;5065636;28;19928;-79
2022/01/24 08:07:38;;;;;;;;;;;0.10;99.90;;;-0.53;100.00;102322.63;5065823;28;19928;-78
2022/01/24 08:10:07;;;;;;;;;;;0.30;99.90;;;-0.37;100.00;102326.03;5069003;28;19928;-78
2022/01/24 08:12:35;;;;;;;;;;;0.30;99.90;;;-0.32;100.00;102316.81;5052552;28;19924;-79
2022/01/24 08:15:03;;;;;;;;;;;0.60;99.90;;;-0.25;100.00;102325.78;5073666;28;20081;-78
2022/01/24 08:17:31;;;;;;;;;;;1.70;99.90;;;-0.22;100.00;102321.66;5059674;28;19960;-78
2022/01/24 08:19:58;;;;;;;;;;;3.30;99.90;;;-0.19;100.00;102311.44;5059101;28;19928;-79
2022/01/24 08:22:26;;;;;;;;;;;0.40;99.90;;;-0.02;100.00;102320.09;5058771;28;20677;-78
2022/01/24 08:24:53;;;;;;;;;;;3.70;99.90;;;0.04;100.00;102319.53;5058894;28;20027;-79
2022/01/24 08:27:20;;;;;;;;;;;0.60;99.90;;;0.13;100.00;102319.09;5058976;28;19967;-78
2022/01/24 08:29:48;;;;;;;;;;;0.70;99.90;;;0.18;100.00;102309.84;5057799;28;20484;-79
2022/01/24 08:32:17;;;;;;;;;;;0.80;99.90;;;0.25;100.00;102314.53;5058521;28;19935;-79
2022/01/24 08:34:44;;;;;;;;;;;0.90;99.90;;;0.35;100.00;102317.56;5059502;28;19967;-79
2022/01/24 08:37:28;;;;;;;;;;;0.90;99.90;;;0.45;100.00;102317.22;5076803;28;19928;-80
2022/01/24 08:40:00;;;;;;;;;;;1.00;99.90;;;0.52;100.00;102319.28;5061280;28;19985;-79
2022/01/24 08:42:42;;;;;;;;;;;1.10;99.90;;;0.60;100.00;102321.38;5063201;28;20029;-80
2022/01/24 08:47:59;;;;;;;;;;;1.10;99.90;;;0.81;100.00;102322.41;5079107;28;19935;-80
2022/01/24 08:50:27;;;;;;;;;;;2.80;99.90;;;0.93;100.00;102326.41;5077298;28;19928;-79
2022/01/24 08:52:59;;;;;;;;;;;3.00;99.90;;;0.96;100.00;102324.84;5061347;28;19925;-79
2022/01/24 08:55:27;;;;;;;;;;;4.10;99.90;;;1.08;100.00;102337.47;5061712;28;19964;-79
2022/01/24 08:57:55;;;;;;;;;;;1.60;99.90;;;1.11;100.00;102324.66;5077555;28;20015;-79
2022/01/24 09:00:23;;;;;;;;;;;1.70;99.90;;;1.21;100.00;102332.88;5076582;28;19929;-78
2022/01/24 09:02:50;;;;;;;;;;;1.70;99.90;;;1.24;100.00;102333.88;5074522;28;19947;-79
2022/01/24 09:05:19;;;;;;;;;;;1.70;99.90;;;1.32;100.00;102331.63;5075233;28;19928;-79
2022/01/24 09:07:46;;;;;;;;;;;1.90;99.90;;;1.34;100.00;102319.66;5078698;28;19928;-80
2022/01/24 09:10:13;;;;;;;;;;;4.00;99.90;;;1.44;100.00;102327.84;5061714;28;19929;-79
2022/01/24 09:12:40;;;;;;;;;;;2.00;99.90;;;1.51;100.00;102325.59;5063097;28;19956;-80
2022/01/24 09:15:07;;;;;;;;;;;2.10;99.90;;;1.58;100.00;102326.75;5057665;28;19928;-79
2022/01/24 09:17:37;;;;;;;;;;;2.10;99.90;;;1.64;100.00;102331.34;5059139;28;19933;-80
2022/01/24 09:20:06;;;;;;;;;;;3.30;99.90;;;1.70;100.00;102331.59;5057589;28;20234;-80
2022/01/24 09:22:43;;;;;;;;;;;2.20;99.90;;;1.69;100.00;102322.94;5075460;28;19943;-79
2022/01/24 09:25:12;;;;;;;;;;;3.00;99.90;;;1.84;100.00;102319.25;5060191;28;19968;-80
2022/01/24 09:27:39;;;;;;;;;;;2.10;99.90;;;1.97;100.00;102321.53;5059167;28;19959;-78
2022/01/24 09:30:09;;;;;;;;;;;3.10;99.90;;;2.09;100.00;102321.16;5072294;28;20019;-78
2022/01/24 09:32:37;;;;;;;;;;;2.50;99.90;;;2.19;100.00;102325.03;5069473;28;19928;-78
2022/01/24 09:35:07;;;;;;;;;;;2.50;99.90;;;2.32;100.00;102325.56;5069497;28;20333;-79
2022/01/24 09:37:34;;;;;;;;;;;0.50;99.90;;;2.39;100.00;102325.88;5069385;28;20296;-79
2022/01/24 09:40:02;;;;;;;;;;;3.70;99.90;;;2.54;100.00;102335.13;5068257;28;20379;-79
2022/01/24 09:42:29;;;;;;;;;;;3.00;99.90;;;2.66;100.00;102334.72;5085295;28;19972;-78
2022/01/24 09:44:57;;;;;;;;;;;0.80;99.90;;;2.78;100.00;102336.94;5091654;28;19954;-78
2022/01/24 09:47:24;;;;;;;;;;;5.70;99.90;;;2.88;100.00;102338.19;5071554;28;19924;-78
2022/01/24 09:49:52;;;;;;;;;;;3.30;99.90;;;2.97;100.00;102339.47;5067984;28;20006;-80
2022/01/24 09:52:19;;;;;;;;;;;3.30;99.90;;;3.09;100.00;102341.63;5052270;28;19929;-79
2022/01/24 09:54:46;;;;;;;;;;;4.10;99.90;;;3.19;100.00;102342.88;5053895;28;19929;-78
2022/01/24 09:57:13;;;;;;;;;;;3.60;99.90;;;3.30;100.00;102342.41;5050274;28;19979;-79
2022/01/24 09:59:40;;;;;;;;;;;5.10;99.90;;;3.40;100.00;102339.31;5049997;28;20040;-78
2022/01/24 10:02:07;;;;;;;;;;;3.80;99.90;;;3.51;100.00;102339.69;5033286;28;20015;-79
2022/01/24 10:04:34;;;;;;;;;;;3.90;99.90;;;3.62;100.00;102340.97;5032773;28;20328;-78
2022/01/24 10:07:05;;;;;;;;;;;4.00;99.90;;;3.72;100.00;102330.91;5033225;28;19929;-78
2022/01/24 10:09:41;;;;;;;;;;;4.20;99.90;;;3.83;100.00;102329.59;5049898;28;19929;-78
2022/01/24 10:18:09;;;;;;;;;;;4.40;99.90;;;4.06;100.00;102325.19;5071375;28;20643;-79
2022/01/24 10:20:41;;;;;;;;;;;4.60;99.90;;;4.17;100.00;102316.81;5069090;28;19928;-79
2022/01/24 10:23:08;;;;;;;;;;;4.60;99.90;;;4.26;100.00;102322.38;5067703;28;19928;-79
2022/01/24 10:25:45;;;;;;;;;;;4.70;99.90;;;4.34;100.00;102315.66;5067864;28;19960;-79
2022/01/24 10:28:22;;;;;;;;;;;4.70;99.90;;;4.36;100.00;102321.81;5067790;28;19956;-78
2022/01/24 10:31:02;;;;;;;;;;;4.80;99.90;;;4.48;100.00;102316.13;5035972;28;20407;-78
2022/01/24 10:33:29;;;;;;;;;;;4.10;99.90;;;4.56;100.00;102305.97;5070196;28;19925;-79
2022/01/24 10:36:40;;;;;;;;;;;5.60;99.90;;;4.66;100.00;102309.75;5041779;28;19924;-77
2022/01/24 10:39:28;;;;;;;;;;;5.10;99.90;;;4.73;100.00;102296.03;5085649;28;20395;-79
2022/01/24 10:42:45;;;;;;;;;;;5.20;99.90;;;4.82;100.00;102292.84;5069304;28;20353;-79
2022/01/24 10:45:22;;;;;;;;;;;5.40;99.90;;;4.95;100.00;102286.28;5053410;28;20341;-77
2022/01/24 10:47:52;;;;;;;;;;;5.40;99.90;;;4.94;100.00;102279.31;5067270;28;19947;-78
2022/01/24 10:50:23;;;;;;;;;;;7.20;99.90;;;4.95;100.00;102276.72;5066176;28;20439;-77
2022/01/24 10:52:51;;;;;;;;;;;5.50;99.90;;;5.10;100.00;102271.09;5049509;28;20007;-77
2022/01/24 10:55:24;;;;;;;;;;;5.60;99.90;;;5.13;100.00;102277.22;5067435;28;19933;-76
2022/01/24 10:58:05;;;;;;;;;;;5.50;99.90;;;5.15;100.00;102265.09;5069914;28;19928;-77
2022/01/24 11:00:34;;;;;;;;;;;5.60;99.90;;;5.16;100.00;102259.06;5086214;28;20035;-77
2022/01/24 11:03:03;;;;;;;;;;;5.50;99.90;;;5.23;100.00;102276.66;5068787;28;20043;-75
2022/01/24 11:05:36;;;;;;;;;;;5.80;99.90;;;5.25;100.00;102264.53;5069223;28;19932;-77
2022/01/24 11:08:06;;;;;;;;;;;5.60;99.90;;;5.27;100.00;102264.56;5069056;28;19925;-77
2022/01/24 11:10:37;;;;;;;;;;;5.70;99.90;;;5.31;100.00;102264.72;5068974;28;20340;-77
2022/01/24 11:13:05;;;;;;;;;;;5.70;99.90;;;5.39;100.00;102257.09;5068714;28;19928;-77
2022/01/24 11:15:34;;;;;;;;;;;5.70;99.90;;;5.38;100.00;102253.59;5065279;28;19932;-77
2022/01/24 11:18:02;;;;;;;;;;;5.90;99.90;;;5.48;100.00;102249.53;5068781;28;19967;-76
2022/01/24 11:20:33;;;;;;;;;;;8.10;99.90;;;5.60;100.00;102248.06;5068636;28;19935;-75
2022/01/24 11:23:05;;;;;;;;;;;5.90;99.90;;;5.57;100.00;102243.66;5068101;28;19928;-76
2022/01/24 11:25:39;;;;;;;;;;;5.90;99.90;;;5.64;100.00;102244.72;5069492;28;19938;-75
2022/01/24 11:28:07;;;;;;;;;;;6.10;99.90;;;5.79;100.00;102249.44;5069283;28;20795;-77
2022/01/24 11:30:48;;;;;;;;;;;6.20;99.90;;;5.93;100.00;102249.78;5070028;28;19928;-76
2022/01/24 11:33:32;;;;;;;;;;;6.20;99.90;;;5.91;100.00;102243.66;5054340;28;19928;-77
2022/01/24 11:36:04;;;;;;;;;;;6.30;99.80;;;6.04;100.00;102244.91;5055437;28;19998;-79
2022/01/24 11:38:37;;;;;;;;;;;6.50;99.90;;;6.02;100.00;102244.84;5069882;28;19928;-79
2022/01/24 11:41:23;;;;;;;;;;;6.40;99.90;;;6.09;100.00;102241.56;5070134;28;19982;-78
2022/01/24 11:43:55;;;;;;;;;;;6.50;99.90;;;6.16;100.00;102239.06;5069455;28;19928;-79
2022/01/24 11:46:52;;;;;;;;;;;6.50;99.90;;;6.29;100.00;102240.25;5069947;28;19932;-79
2022/01/24 11:49:25;;;;;;;;;;;6.60;99.90;;;6.30;100.00;102242.91;5084512;28;21093;-79
2022/01/24 11:52:13;;;;;;;;;;;6.60;99.80;;;6.43;100.00;102230.13;5070363;28;19940;-79
2022/01/24 11:57:34;;;;;;;;;;;6.80;99.80;;;6.60;100.00;102223.56;5071266;28;19971;-79
2022/01/24 12:00:01;;;;;;;;;;;6.90;99.80;;;6.68;100.00;102215.88;5085981;28;19935;-79
2022/01/24 12:02:45;;;;;;;;;;;7.00;99.80;;;6.67;100.00;102208.88;5085964;28;19925;-80
2022/01/24 12:05:17;;;;;;;;;;;7.10;99.80;;;6.71;100.00;102207.19;5069392;28;19984;-79
2022/01/24 12:08:05;;;;;;;;;;;7.00;99.40;;;6.80;100.00;102210.00;5073461;28;19927;-79
2022/01/24 12:11:37;;;;;;;;;;;7.00;99.60;;;6.84;100.00;102208.34;5072186;28;19932;-79
2022/01/24 12:17:52;;;;;;;;;;;8.40;99.80;;;7.09;100.00;102207.97;4989582;28;20369;-78
2022/01/24 12:20:31;;;;;;;;;;;7.40;99.20;;;7.12;100.00;102203.69;4971481;28;19930;-78
2022/01/24 12:23:16;;;;;;;;;;;7.40;98.70;;;7.22;100.00;102198.66;4987701;28;20442;-78
2022/01/24 12:26:05;;;;;;;;;;;7.50;98.60;;;7.35;100.00;102191.91;4987437;28;19929;-78
2022/01/24 12:28:44;;;;;;;;;;;7.50;99.00;;;7.45;100.00;102190.34;4970562;28;20012;-76
2022/01/24 12:31:23;;;;;;;;;;;7.70;99.00;;;7.50;100.00;102186.09;4986345;28;19965;-77
2022/01/24 12:34:19;;;;;;;;;;;7.70;98.60;;;7.57;100.00;102188.81;4986746;28;20306;-78
2022/01/24 12:37:00;;;;;;;;;;;6.80;98.30;;;7.64;100.00;102188.03;4958488;28;19933;-77
2022/01/24 12:39:34;;;;;;;;;;;7.90;98.50;;;7.80;100.00;102187.47;4987630;28;19984;-78
2022/01/24 12:42:12;;;;;;;;;;;8.00;98.30;;;7.85;100.00;102190.16;4987545;28;20584;-78
2022/01/24 12:47:15;;;;;;;;;;;8.20;97.70;;;8.05;100.00;102173.88;5026164;28;19932;-77
2022/01/24 12:49:44;;;;;;;;;;;8.20;98.00;;;8.20;100.00;102174.13;5032150;28;20107;-77
2022/01/24 12:52:21;;;;;;;;;;;8.60;98.00;;;8.42;100.00;102163.03;5068339;28;19928;-77
2022/01/24 12:54:51;;;;;;;;;;;8.50;98.10;;;8.54;100.00;102170.25;5068985;28;19928;-81
2022/01/24 12:57:21;;;;;;;;;;;8.80;97.60;;;8.71;100.00;102170.44;5065042;28;20399;-76
2022/01/24 13:00:07;;;;;;;;;;;8.90;97.40;;;8.90;100.00;102163.69;5062822;28;19943;-77
2022/01/24 13:02:39;;;;;;;;;;;9.00;97.10;;;9.27;100.00;102160.59;5069994;28;19933;-76
2022/01/24 13:05:16;;;;;;;;;;;9.30;97.30;;;9.65;99.60;102163.56;5067045;28;19951;-76
2022/01/24 13:07:52;;;;;;;;;;;9.60;96.90;;;10.03;99.36;102164.75;5058315;28;19932;-76
2022/01/24 13:10:21;;;;;;;;;;;9.90;96.60;;;10.44;96.79;102165.91;5058355;28;19925;-76
2022/01/24 13:13:11;;;;;;;;;;;10.30;96.70;;;11.14;94.57;102154.75;5059420;28;19978;-76
2022/01/24 13:21:26;;;;;;;;;;;12.40;93.20;;;13.11;64.84;102138.56;5067442;28;19929;-77
2022/01/24 13:23:57;;;;;;;;;;;13.10;91.60;;;13.66;65.60;102138.19;5066849;28;20665;-77
2022/01/24 13:26:25;;;;;;;;;;;13.80;91.70;;;13.77;58.67;102140.75;5051130;28;19924;-77
2022/01/24 13:29:05;;;;;;;;;;;14.30;83.70;;;14.09;58.34;102136.91;5050613;28;19974;-77
2022/01/24 13:31:32;;;;;;;;;;;14.60;81.80;;;14.40;55.14;102126.84;5062038;28;19936;-77
2022/01/24 13:34:08;;;;;;;;;;;15.00;77.40;;;14.73;53.68;102124.69;5054609;28;19940;-77
2022/01/24 13:36:42;;;;;;;;;;;15.30;74.30;;;14.92;54.42;102119.16;5058302;28;20435;-77
2022/01/24 13:39:10;;;;;;;;;;;15.60;75.70;;;15.09;52.40;102123.34;5065341;28;19986;-77
2022/01/24 13:41:37;;;;;;;;;;;15.70;71.50;;;15.09;51.36;102118.91;5059885;28;20316;-77